Time;durP1;ratioP1;P1;durP2;ratioP2;P2;SDS_P1;SDS_P2;PMS_P1;PMS_P2;Temp;Humidity;BMP_temperature;BMP_pressure;BME280_temperature;BME280_humidity;BME280_pressure;Samples;Min_cycle;Max_cycle;Signal;HPM_P1;HPM_P2
2023/12/25 00:00:17;;;;;;;6.65;2.17;;;;;;;16.35;61.70;100440.41;4962688;28;97835;-74
2023/12/25 00:02:44;;;;;;;9.30;2.05;;;;;;;16.35;61.43;100444.00;4962565;28;96826;-75
2023/12/25 00:05:14;;;;;;;6.28;2.30;;;;;;;16.34;61.51;100444.97;4966956;28;97614;-74
2023/12/25 00:07:41;;;;;;;12.50;3.15;;;;;;;16.34;61.58;100450.38;4961773;28;98340;-74
2023/12/25 00:10:08;;;;;;;7.82;2.80;;;;;;;16.33;61.35;100440.56;4963833;28;97206;-74
2023/12/25 00:12:34;;;;;;;9.77;2.30;;;;;;;16.33;61.57;100451.41;4952966;28;96895;-75
2023/12/25 00:15:01;;;;;;;5.78;2.28;;;;;;;16.34;61.50;100438.69;4962585;28;99882;-73
2023/12/25 00:17:28;;;;;;;8.10;2.42;;;;;;;16.33;61.37;100429.72;4945210;28;99800;-74
2023/12/25 00:19:55;;;;;;;9.30;2.65;;;;;;;16.34;61.68;100434.13;4962208;28;97106;-74
2023/12/25 00:22:22;;;;;;;10.40;2.58;;;;;;;16.35;61.63;100433.16;4964007;28;96935;-74
2023/12/25 00:24:49;;;;;;;8.90;2.47;;;;;;;16.34;61.51;100431.41;4964927;28;100336;-74
2023/12/25 00:27:15;;;;;;;8.27;2.72;;;;;;;16.35;61.45;100437.69;4963461;28;98324;-74
2023/12/25 00:29:42;;;;;;;7.22;1.83;;;;;;;16.34;61.41;100436.84;4964415;28;98183;-75
2023/12/25 00:32:09;;;;;;;13.25;2.50;;;;;;;16.35;61.44;100433.16;4973245;28;97337;-75
2023/12/25 00:34:35;;;;;;;7.35;2.22;;;;;;;16.35;61.29;100441.28;4948063;28;98101;-74
2023/12/25 00:37:02;;;;;;;11.20;2.35;;;;;;;16.35;61.63;100440.41;4963855;28;97472;-75
2023/12/25 00:39:29;;;;;;;10.38;2.22;;;;;;;16.35;61.72;100433.16;4948247;28;96927;-74
2023/12/25 00:41:55;;;;;;;8.27;2.30;;;;;;;16.32;61.31;100433.44;4965032;28;97049;-77
2023/12/25 00:44:22;;;;;;;8.40;2.35;;;;;;;16.30;61.40;100427.31;4961971;28;97961;-74
2023/12/25 00:46:49;;;;;;;7.95;2.25;;;;;;;16.28;61.78;100459.13;4961646;28;100288;-74
2023/12/25 00:49:17;;;;;;;12.98;2.97;;;;;;;16.27;61.61;100452.00;4948206;28;97250;-75
2023/12/25 00:51:44;;;;;;;5.88;2.40;;;;;;;16.26;61.42;100472.00;4971060;28;97008;-73
2023/12/25 00:54:12;;;;;;;7.88;2.08;;;;;;;16.26;61.75;100474.69;4961223;28;100234;-73
2023/12/25 00:56:38;;;;;;;8.10;2.38;;;;;;;16.25;61.47;100469.44;4965305;28;97639;-74
2023/12/25 00:59:08;;;;;;;7.80;1.67;;;;;;;16.22;61.69;100473.31;4966755;28;96893;-75
2023/12/25 01:01:35;;;;;;;8.68;2.45;;;;;;;16.19;61.90;100479.88;4968821;28;97206;-75
2023/12/25 01:04:02;;;;;;;11.45;2.97;;;;;;;16.16;62.03;100482.06;4956009;28;100121;-74
2023/12/25 01:06:29;;;;;;;11.05;3.10;;;;;;;16.14;62.11;100475.94;4962807;28;100596;-75
2023/12/25 01:08:56;;;;;;;7.80;2.70;;;;;;;16.12;61.94;100475.25;4964606;28;96909;-74
2023/12/25 01:11:23;;;;;;;7.60;2.58;;;;;;;16.08;61.90;100477.41;4955938;28;97141;-74
2023/12/25 01:13:50;;;;;;;7.97;2.90;;;;;;;16.05;62.01;100482.28;4964829;28;97818;-74
2023/12/25 01:16:17;;;;;;;7.97;2.80;;;;;;;16.01;62.26;100495.28;4964822;28;98463;-74
2023/12/25 01:18:43;;;;;;;10.50;2.50;;;;;;;15.97;62.09;100501.16;4965757;28;97040;-74
2023/12/25 01:21:10;;;;;;;9.43;3.00;;;;;;;15.95;62.24;100495.03;4966184;28;98053;-74
2023/12/25 01:23:37;;;;;;;10.48;3.30;;;;;;;15.91;62.35;100504.47;4965086;28;96957;-75
2023/12/25 01:26:04;;;;;;;10.50;2.95;;;;;;;15.89;62.48;100494.63;4962274;28;99912;-76
2023/12/25 01:28:30;;;;;;;11.68;2.78;;;;;;;15.88;62.48;100487.50;4963551;28;97155;-74
2023/12/25 01:30:57;;;;;;;15.13;3.03;;;;;;;15.87;62.62;100491.22;4959704;28;97064;-74
2023/12/25 01:33:24;;;;;;;14.98;3.28;;;;;;;15.88;62.36;100484.81;4962061;28;99958;-74
2023/12/25 01:35:51;;;;;;;10.35;2.70;;;;;;;15.89;62.58;100469.41;4965362;28;97401;-75
2023/12/25 01:38:18;;;;;;;10.25;2.95;;;;;;;15.88;62.70;100501.06;4965160;28;97446;-74
2023/12/25 01:40:45;;;;;;;12.52;2.15;;;;;;;15.89;62.63;100496.50;4963977;28;97178;-75
2023/12/25 01:43:12;;;;;;;7.13;1.42;;;;;;;15.87;62.56;100495.78;4946061;28;101232;-74
2023/12/25 01:45:38;;;;;;;4.72;1.73;;;;;;;15.80;62.31;100495.53;4989628;28;99918;-74
2023/12/25 01:48:06;;;;;;;9.27;1.13;;;;;;;15.75;61.65;100508.69;4965266;28;97842;-74
2023/12/25 01:50:33;;;;;;;3.50;0.80;;;;;;;15.65;61.37;100513.28;4964173;28;97432;-74
2023/12/25 01:53:01;;;;;;;1.35;0.40;;;;;;;15.53;61.24;100520.69;4964994;28;98013;-73
2023/12/25 01:55:28;;;;;;;1.65;0.90;;;;;;;15.39;60.88;100525.72;4963239;28;97630;-73
2023/12/25 01:57:55;;;;;;;3.35;0.60;;;;;;;15.24;60.88;100523.50;4952921;28;97283;-73
2023/12/25 02:00:22;;;;;;;4.93;0.85;;;;;;;15.13;61.20;100520.13;4964235;28;97343;-74
2023/12/25 02:02:49;;;;;;;3.47;0.90;;;;;;;15.04;61.16;100529.97;4962725;28;100808;-73
2023/12/25 02:05:16;;;;;;;4.00;1.00;;;;;;;14.97;61.45;100528.84;4962534;28;97204;-73
2023/12/25 02:07:45;;;;;;;4.63;1.10;;;;;;;14.94;61.49;100526.41;4972574;28;97087;-73
2023/12/25 02:10:25;;;;;;;4.22;1.30;;;;;;;14.94;61.62;100521.88;4963310;28;97898;-73
2023/12/25 02:12:51;;;;;;;4.97;1.00;;;;;;;14.96;61.84;100518.16;4989410;28;98316;-73
2023/12/25 02:15:18;;;;;;;3.95;1.45;;;;;;;15.00;61.78;100511.47;4962466;28;99849;-73
2023/12/25 02:17:45;;;;;;;8.02;1.85;;;;;;;15.03;62.17;100520.13;4963090;28;97059;-73
2023/12/25 02:20:14;;;;;;;10.05;2.10;;;;;;;15.06;61.90;100527.09;4962544;28;97375;-73
2023/12/25 02:22:41;;;;;;;16.90;2.55;;;;;;;15.09;62.39;100506.03;4961390;28;98236;-74
2023/12/25 02:25:14;;;;;;;14.95;4.32;;;;;;;15.15;62.31;100510.84;4969087;28;97814;-74
2023/12/25 02:27:40;;;;;;;17.55;3.92;;;;;;;15.22;62.74;100516.53;4993945;28;98075;-74
2023/12/25 02:30:07;;;;;;;13.75;3.53;;;;;;;15.31;62.31;100514.78;4960056;28;96942;-74
2023/12/25 02:32:34;;;;;;;14.85;3.30;;;;;;;15.39;62.50;100528.44;4953388;28;99694;-73
2023/12/25 02:35:01;;;;;;;13.00;3.30;;;;;;;15.45;62.76;100530.56;4964470;28;97488;-73
2023/12/25 02:37:27;;;;;;;9.43;2.58;;;;;;;15.50;62.86;100533.66;4959496;28;96882;-73
2023/12/25 02:39:55;;;;;;;13.05;3.70;;;;;;;15.53;62.93;100546.91;4965332;28;96856;-74
2023/12/25 02:42:21;;;;;;;11.85;2.85;;;;;;;15.58;63.12;100517.56;4963871;28;97696;-73
2023/12/25 02:44:48;;;;;;;10.93;3.10;;;;;;;15.62;63.30;100516.31;4963145;28;97766;-73
2023/12/25 02:47:15;;;;;;;12.80;3.42;;;;;;;15.65;63.32;100507.88;4964266;28;98002;-74
2023/12/25 02:49:41;;;;;;;13.68;3.28;;;;;;;15.68;63.10;100515.69;4965355;28;97041;-74
2023/12/25 02:52:08;;;;;;;11.50;3.35;;;;;;;15.71;62.78;100515.41;4963305;28;97602;-73
2023/12/25 02:54:35;;;;;;;11.75;2.90;;;;;;;15.74;62.90;100525.06;4963470;28;97610;-73
2023/12/25 02:57:01;;;;;;;11.10;3.10;;;;;;;15.75;62.83;100519.50;4962192;28;97087;-73
2023/12/25 02:59:28;;;;;;;7.97;2.80;;;;;;;15.75;63.04;100505.97;4943978;28;97037;-74
2023/12/25 03:01:55;;;;;;;9.60;2.85;;;;;;;15.74;62.92;100509.69;4974553;28;99852;-73
2023/12/25 03:04:23;;;;;;;10.77;2.80;;;;;;;15.73;62.55;100512.53;4976648;28;98470;-74
2023/12/25 03:06:50;;;;;;;11.38;3.00;;;;;;;15.73;63.10;100521.50;4965730;28;98158;-74
2023/12/25 03:09:18;;;;;;;11.18;2.80;;;;;;;15.73;62.64;100521.50;4960814;28;97519;-75
2023/12/25 03:11:45;;;;;;;14.80;2.78;;;;;;;15.73;62.98;100518.81;4992816;28;100290;-74
2023/12/25 03:14:12;;;;;;;8.95;2.92;;;;;;;15.75;62.80;100519.50;4969482;28;100481;-72
2023/12/25 03:16:38;;;;;;;8.95;2.97;;;;;;;15.75;62.97;100524.94;4970557;28;96905;-74
2023/12/25 03:19:05;;;;;;;10.23;2.88;;;;;;;15.75;62.73;100533.06;4946448;28;97900;-73
2023/12/25 03:21:32;;;;;;;14.32;3.15;;;;;;;15.75;63.26;100535.75;4959033;28;98029;-73
2023/12/25 03:23:59;;;;;;;13.23;3.45;;;;;;;15.77;63.01;100536.47;4977071;28;97754;-74
2023/12/25 03:26:26;;;;;;;15.23;2.72;;;;;;;15.79;62.62;100547.13;4946598;28;97775;-77
2023/12/25 03:28:52;;;;;;;12.70;3.03;;;;;;;15.82;62.69;100557.66;4996352;28;97063;-73
2023/12/25 03:31:19;;;;;;;7.75;3.20;;;;;;;15.82;62.60;100555.81;4963583;28;97468;-73
2023/12/25 03:33:46;;;;;;;8.75;2.58;;;;;;;15.83;62.66;100554.81;4962332;28;99807;-73
2023/12/25 03:36:13;;;;;;;13.27;2.70;;;;;;;15.84;62.63;100545.69;4955494;28;97197;-73
2023/12/25 03:38:40;;;;;;;7.28;2.60;;;;;;;15.85;62.89;100554.66;4959423;28;97378;-74
2023/12/25 03:41:08;;;;;;;8.85;2.08;;;;;;;15.86;62.67;100572.63;4962249;28;98037;-74
2023/12/25 03:43:36;;;;;;;12.00;2.97;;;;;;;15.87;62.45;100558.06;4964022;28;97713;-75
2023/12/25 03:46:03;;;;;;;9.30;3.33;;;;;;;15.88;62.66;100557.06;4995301;28;98060;-75
2023/12/25 03:48:29;;;;;;;12.75;3.15;;;;;;;15.88;62.71;100582.28;4964059;28;97283;-75
2023/12/25 03:50:57;;;;;;;12.68;2.65;;;;;;;15.89;62.90;100596.69;4995913;28;98081;-74
2023/12/25 03:53:23;;;;;;;12.02;2.78;;;;;;;15.88;62.41;100582.28;4977961;28;99715;-74
2023/12/25 03:55:50;;;;;;;12.52;3.17;;;;;;;15.88;62.73;100582.28;4963946;28;97519;-74
2023/12/25 03:58:17;;;;;;;8.15;2.22;;;;;;;15.90;62.72;100587.56;4999467;28;96995;-75
2023/12/25 04:00:43;;;;;;;12.32;2.38;;;;;;;15.91;62.28;100570.31;4967428;28;98074;-74
2023/12/25 04:03:11;;;;;;;9.07;2.67;;;;;;;15.92;62.43;100566.59;4982411;28;98112;-74
2023/12/25 04:05:38;;;;;;;13.55;3.10;;;;;;;15.94;62.12;100585.41;4967336;28;96803;-74
2023/12/25 04:08:06;;;;;;;12.30;2.67;;;;;;;15.95;62.44;100585.25;4965971;28;97066;-74
2023/12/25 04:10:33;;;;;;;11.05;2.13;;;;;;;15.95;62.20;100570.88;4948535;28;100519;-74
2023/12/25 04:12:59;;;;;;;10.98;3.33;;;;;;;15.94;62.03;100567.31;4967411;28;98488;-74
2023/12/25 04:15:27;;;;;;;8.75;2.80;;;;;;;15.95;62.13;100568.16;4965561;28;96961;-74
2023/12/25 04:17:54;;;;;;;11.98;2.53;;;;;;;15.94;62.36;100567.31;4967116;28;97359;-74
2023/12/25 04:20:21;;;;;;;11.40;2.30;;;;;;;15.94;62.26;100580.00;4966596;28;99433;-74
2023/12/25 04:22:49;;;;;;;14.15;3.22;;;;;;;15.95;62.25;100568.16;4981124;28;98979;-74
2023/12/25 04:25:15;;;;;;;11.30;3.38;;;;;;;15.93;62.42;100562.88;4976285;28;97926;-75
2023/12/25 04:27:44;;;;;;;14.68;3.42;;;;;;;15.94;62.15;100570.00;4964313;28;97095;-75
2023/12/25 04:30:12;;;;;;;8.85;2.30;;;;;;;15.94;62.28;100569.16;4978050;28;101028;-74
2023/12/25 04:32:39;;;;;;;5.80;1.90;;;;;;;15.95;61.99;100568.16;4963891;28;100031;-74
2023/12/25 04:35:06;;;;;;;12.15;2.28;;;;;;;15.94;62.00;100558.31;4974508;28;97013;-74
2023/12/25 04:37:32;;;;;;;12.57;2.90;;;;;;;15.94;62.22;100548.34;4991905;28;97084;-74
2023/12/25 04:39:59;;;;;;;9.70;2.30;;;;;;;15.94;61.97;100558.31;4962770;28;98045;-75
2023/12/25 04:42:26;;;;;;;10.75;3.15;;;;;;;15.94;62.24;100542.94;4965034;28;97491;-74
2023/12/25 04:44:52;;;;;;;9.57;2.97;;;;;;;15.94;62.09;100551.06;4963501;28;97262;-74
2023/12/25 04:47:19;;;;;;;9.10;3.20;;;;;;;15.94;62.09;100561.88;4964638;28;97293;-74
2023/12/25 04:49:46;;;;;;;9.18;2.78;;;;;;;15.93;62.34;100557.47;4965257;28;97756;-74
2023/12/25 04:52:13;;;;;;;8.43;2.47;;;;;;;15.92;62.38;100557.63;4963465;28;97882;-74
2023/12/25 04:54:40;;;;;;;10.57;2.20;;;;;;;15.91;62.13;100545.94;4962953;28;96913;-75
2023/12/25 04:57:07;;;;;;;7.00;2.38;;;;;;;15.92;62.28;100550.34;4996819;28;97053;-75
2023/12/25 04:59:33;;;;;;;9.65;2.67;;;;;;;15.92;62.26;100546.78;4964215;28;98247;-74
2023/12/25 05:02:03;;;;;;;8.65;2.70;;;;;;;15.93;62.34;100545.78;4963520;28;100174;-75
2023/12/25 05:04:29;;;;;;;7.20;2.28;;;;;;;15.94;62.31;100544.78;4963130;28;97190;-75
2023/12/25 05:06:57;;;;;;;8.30;2.47;;;;;;;15.93;62.25;100541.22;4947124;28;97093;-75
2023/12/25 05:09:23;;;;;;;8.40;2.50;;;;;;;15.95;62.27;100538.38;4962211;28;98138;-74
2023/12/25 05:11:50;;;;;;;10.45;2.10;;;;;;;15.95;62.18;100536.50;4996822;28;100159;-74
2023/12/25 05:14:18;;;;;;;6.63;1.77;;;;;;;15.94;62.37;100540.22;4959853;28;97334;-74
2023/12/25 05:16:45;;;;;;;11.23;2.97;;;;;;;15.93;62.13;100538.50;4996558;28;98223;-74
2023/12/25 05:19:12;;;;;;;7.82;2.00;;;;;;;15.92;61.94;100538.66;4979789;28;100049;-73
2023/12/25 05:21:39;;;;;;;7.60;2.60;;;;;;;15.91;62.18;100543.22;4995771;28;98439;-76
2023/12/25 05:24:06;;;;;;;8.57;2.45;;;;;;;15.90;62.01;100536.09;4995549;28;97083;-76
2023/12/25 05:26:33;;;;;;;8.32;2.17;;;;;;;15.89;62.41;100551.50;4964880;28;97483;-76
2023/12/25 05:28:59;;;;;;;8.40;1.90;;;;;;;15.91;62.07;100555.91;4960722;28;97460;-75
2023/12/25 05:31:27;;;;;;;8.32;2.15;;;;;;;15.91;62.32;100554.06;4965088;28;97782;-76
2023/12/25 05:33:53;;;;;;;8.48;2.20;;;;;;;15.91;62.16;100555.91;4964010;28;97212;-75
2023/12/25 05:36:21;;;;;;;5.55;1.92;;;;;;;15.91;62.41;100559.47;4996829;28;97870;-76
2023/12/25 05:38:47;;;;;;;7.07;2.22;;;;;;;15.90;62.55;100560.47;4975676;28;99906;-75
2023/12/25 05:41:31;;;;;;;6.97;1.98;;;;;;;15.88;62.35;100549.81;4968759;28;98783;-76
2023/12/25 05:43:58;;;;;;;6.72;2.45;;;;;;;15.87;62.31;100548.09;4980369;28;97462;-73
2023/12/25 05:46:24;;;;;;;7.20;2.13;;;;;;;15.87;62.33;100555.38;4960010;28;96902;-75
2023/12/25 05:48:51;;;;;;;11.73;1.88;;;;;;;15.86;62.32;100559.94;4979362;28;98257;-76
2023/12/25 05:51:19;;;;;;;6.63;2.53;;;;;;;15.85;62.30;100555.50;4963375;28;97618;-76
2023/12/25 05:53:45;;;;;;;7.10;2.35;;;;;;;15.85;62.54;100554.66;4964496;28;97501;-75
2023/12/25 05:56:12;;;;;;;7.07;2.25;;;;;;;15.84;62.41;100564.63;4964329;28;96899;-75
2023/12/25 05:58:39;;;;;;;5.75;1.70;;;;;;;15.85;62.38;100543.84;4961128;28;97805;-76
2023/12/25 06:01:08;;;;;;;7.43;1.83;;;;;;;15.83;62.38;100568.34;4964228;28;97741;-74
2023/12/25 06:03:35;;;;;;;3.78;1.77;;;;;;;15.81;62.20;100567.66;4964116;28;97163;-76
2023/12/25 06:06:02;;;;;;;6.00;1.88;;;;;;;15.78;62.28;100567.94;4963660;28;96947;-74
2023/12/25 06:08:29;;;;;;;4.55;1.52;;;;;;;15.78;62.40;100572.50;4963886;28;97799;-75
2023/12/25 06:10:57;;;;;;;8.23;1.50;;;;;;;15.75;62.68;100562.84;4958351;28;100395;-76
2023/12/25 06:13:24;;;;;;;8.27;1.45;;;;;;;15.73;62.62;100567.53;4963930;28;96896;-75
2023/12/25 06:15:51;;;;;;;3.53;1.35;;;;;;;15.72;62.41;100573.97;4964785;28;97122;-76
2023/12/25 06:18:18;;;;;;;4.28;1.05;;;;;;;15.70;62.45;100570.53;4964279;28;98719;-74
2023/12/25 06:20:46;;;;;;;4.78;1.27;;;;;;;15.68;62.19;100575.25;4956113;28;100261;-75
2023/12/25 06:23:13;;;;;;;5.20;1.30;;;;;;;15.67;62.18;100578.13;4955508;28;96884;-74
2023/12/25 06:25:40;;;;;;;4.03;1.63;;;;;;;15.64;62.55;100576.56;4962177;28;97115;-76
2023/12/25 06:28:07;;;;;;;3.38;1.10;;;;;;;15.61;62.12;100579.56;4963780;28;98039;-76
2023/12/25 06:30:34;;;;;;;2.67;0.90;;;;;;;15.59;62.63;100578.81;4987598;28;98881;-75
2023/12/25 06:33:01;;;;;;;1.77;0.88;;;;;;;15.55;62.32;100578.22;4962827;28;96920;-74
2023/12/25 06:35:28;;;;;;;3.75;0.80;;;;;;;15.54;62.47;100581.09;4964262;28;97473;-74
2023/12/25 06:37:55;;;;;;;4.85;1.20;;;;;;;15.52;62.37;100592.06;4963502;28;97521;-74
2023/12/25 06:40:22;;;;;;;3.08;0.85;;;;;;;15.50;62.03;100591.34;4964180;28;97953;-75
2023/12/25 06:42:48;;;;;;;2.05;0.80;;;;;;;15.48;61.94;100584.38;4965235;28;97891;-75
2023/12/25 06:45:15;;;;;;;2.97;1.20;;;;;;;15.45;62.30;100582.81;4964306;28;96889;-75
2023/12/25 06:47:42;;;;;;;3.42;0.70;;;;;;;15.43;62.16;100587.53;4963893;28;97791;-75
2023/12/25 06:50:08;;;;;;;4.10;0.73;;;;;;;15.39;61.95;100596.09;4961378;28;98588;-74
2023/12/25 06:52:35;;;;;;;1.55;0.60;;;;;;;15.34;62.11;100599.22;4995624;28;97427;-74
2023/12/25 06:55:02;;;;;;;3.03;1.05;;;;;;;15.31;61.60;100593.25;4962608;28;97266;-76
2023/12/25 06:57:29;;;;;;;4.72;1.20;;;;;;;15.29;61.59;100595.25;4963442;28;97743;-75
2023/12/25 06:59:57;;;;;;;3.72;1.02;;;;;;;15.26;62.00;100582.88;4959101;28;98329;-75
2023/12/25 07:02:24;;;;;;;3.58;0.80;;;;;;;15.24;61.43;100583.00;4962836;28;97023;-75
2023/12/25 07:04:50;;;;;;;1.80;0.60;;;;;;;15.21;61.38;100591.41;4963351;28;97185;-74
2023/12/25 07:07:17;;;;;;;2.65;1.25;;;;;;;15.19;61.68;100590.72;4963339;28;98562;-76
2023/12/25 07:09:44;;;;;;;3.00;0.98;;;;;;;15.18;61.67;100599.81;4963394;28;97815;-75
2023/12/25 07:12:10;;;;;;;2.17;0.68;;;;;;;15.16;61.39;100599.13;4971231;28;97164;-75
2023/12/25 07:14:38;;;;;;;1.80;0.80;;;;;;;15.17;61.34;100618.91;4962971;28;96846;-74
2023/12/25 07:17:07;;;;;;;2.08;0.80;;;;;;;15.15;61.51;100615.50;4962837;28;97724;-74
2023/12/25 07:19:34;;;;;;;2.72;0.70;;;;;;;15.14;61.60;100609.22;4961853;28;97902;-75
2023/12/25 07:22:01;;;;;;;2.00;0.73;;;;;;;15.14;61.57;100621.91;4962133;28;97033;-73
2023/12/25 07:24:28;;;;;;;1.65;0.70;;;;;;;15.12;61.45;100629.31;4963403;28;97511;-75
2023/12/25 07:26:54;;;;;;;2.53;0.75;;;;;;;15.09;61.31;100624.19;4962599;28;97498;-75
2023/12/25 07:29:22;;;;;;;2.97;1.08;;;;;;;15.08;61.39;100639.56;4962374;28;97741;-74
2023/12/25 07:31:49;;;;;;;2.83;0.85;;;;;;;15.07;61.56;100635.16;4994174;28;97251;-73
2023/12/25 07:34:15;;;;;;;0.95;0.50;;;;;;;15.05;61.53;100639.84;4953324;28;97545;-75
2023/12/25 07:36:42;;;;;;;4.30;1.10;;;;;;;15.05;61.62;100644.41;4962227;28;97692;-75
2023/12/25 07:39:08;;;;;;;3.45;0.93;;;;;;;15.03;61.35;100640.97;4961261;28;99766;-74
2023/12/25 07:41:35;;;;;;;3.33;0.80;;;;;;;15.01;61.48;100633.00;4962393;28;97660;-74
2023/12/25 07:44:02;;;;;;;4.18;1.30;;;;;;;15.01;61.33;100643.84;4995028;28;97032;-75
2023/12/25 07:46:29;;;;;;;3.20;1.10;;;;;;;15.00;61.23;100639.41;4994368;28;98143;-74
2023/12/25 07:48:56;;;;;;;6.00;1.30;;;;;;;15.00;61.48;100652.09;4960718;28;97545;-75
2023/12/25 07:51:23;;;;;;;2.67;0.85;;;;;;;14.99;61.24;100644.97;4959883;28;97001;-74
2023/12/25 07:53:49;;;;;;;2.35;0.90;;;;;;;15.00;61.15;100650.22;4948321;28;97292;-75
2023/12/25 07:56:17;;;;;;;5.03;1.25;;;;;;;15.00;61.50;100660.19;4960514;28;98302;-74
2023/12/25 07:58:43;;;;;;;1.80;0.88;;;;;;;15.00;61.53;100660.19;4970347;28;97951;-75
2023/12/25 08:01:12;;;;;;;3.92;1.40;;;;;;;14.99;61.35;100664.75;4960901;28;97270;-76
2023/12/25 08:03:39;;;;;;;3.88;1.42;;;;;;;15.00;61.52;100666.47;4960736;28;97053;-74
2023/12/25 08:06:09;;;;;;;5.47;1.25;;;;;;;15.01;61.33;100665.47;4961403;28;98190;-75
2023/12/25 08:08:36;;;;;;;4.82;1.50;;;;;;;15.01;61.03;100664.63;4961684;28;97626;-75
2023/12/25 08:11:03;;;;;;;5.03;1.20;;;;;;;15.00;61.37;100652.09;4961966;28;97754;-75
2023/12/25 08:13:29;;;;;;;5.38;1.02;;;;;;;15.01;61.41;100662.75;4960904;28;97672;-76
2023/12/25 08:15:56;;;;;;;4.70;1.30;;;;;;;15.01;61.20;100657.34;4960678;28;98102;-74
2023/12/25 08:18:23;;;;;;;4.78;1.13;;;;;;;15.01;61.19;100660.06;4962390;28;100468;-74
2023/12/25 08:20:49;;;;;;;4.45;1.33;;;;;;;15.02;61.64;100663.63;4962581;28;96985;-74
2023/12/25 08:23:16;;;;;;;3.17;1.23;;;;;;;15.03;61.13;100665.31;4970835;28;97286;-77
2023/12/25 08:25:43;;;;;;;5.15;1.33;;;;;;;15.05;61.25;100671.44;4958279;28;97675;-77
2023/12/25 08:28:10;;;;;;;4.22;1.10;;;;;;;15.05;61.42;100674.16;4961771;28;97964;-77
2023/12/25 08:30:37;;;;;;;3.95;1.27;;;;;;;15.04;61.31;100678.72;4957729;28;97389;-76
2023/12/25 08:33:04;;;;;;;2.88;1.00;;;;;;;15.05;61.19;100690.38;4971679;28;97282;-77
2023/12/25 08:35:30;;;;;;;4.43;1.30;;;;;;;15.05;61.29;100691.22;4960822;28;97634;-75
2023/12/25 08:37:57;;;;;;;3.35;1.00;;;;;;;15.06;61.19;100694.78;4961154;28;98102;-76
2023/12/25 08:40:25;;;;;;;3.78;1.20;;;;;;;15.05;61.18;100698.50;4952845;28;97036;-74
2023/12/25 08:42:52;;;;;;;2.50;0.80;;;;;;;15.06;60.95;100692.09;4963718;28;97292;-75
2023/12/25 08:45:19;;;;;;;3.00;1.20;;;;;;;15.07;61.36;100689.25;4962782;28;97673;-74
2023/12/25 08:47:48;;;;;;;1.65;0.95;;;;;;;15.08;61.28;100684.69;4965164;28;97716;-74
2023/12/25 08:50:15;;;;;;;2.03;0.85;;;;;;;15.10;61.25;100693.50;4961916;28;96946;-74
2023/12/25 08:52:41;;;;;;;2.35;1.10;;;;;;;15.10;61.27;100701.63;4963269;28;96875;-75
2023/12/25 08:55:08;;;;;;;4.05;1.63;;;;;;;15.09;61.24;100714.28;4975382;28;99724;-76
2023/12/25 08:57:35;;;;;;;2.28;1.20;;;;;;;15.08;61.15;100706.31;4961559;28;101178;-74
2023/12/25 09:00:05;;;;;;;1.92;0.90;;;;;;;15.08;61.52;100711.72;4964260;28;98144;-75
2023/12/25 09:02:32;;;;;;;3.67;1.00;;;;;;;15.08;61.17;100719.84;4963696;28;97093;-75
2023/12/25 09:04:59;;;;;;;1.27;0.90;;;;;;;15.07;61.02;100715.44;4946010;28;99703;-74
2023/12/25 09:07:29;;;;;;;3.30;1.10;;;;;;;15.08;61.42;100722.56;4977615;28;98373;-73
2023/12/25 09:09:56;;;;;;;1.65;0.82;;;;;;;15.09;61.45;100726.97;4945777;28;96849;-74
2023/12/25 09:12:23;;;;;;;4.57;1.13;;;;;;;15.09;61.35;100732.38;4962727;28;97402;-77
2023/12/25 09:14:50;;;;;;;2.60;1.02;;;;;;;15.08;61.16;100733.38;4963600;28;98044;-77
2023/12/25 09:17:16;;;;;;;2.58;0.85;;;;;;;15.08;61.20;100739.63;4963765;28;98046;-76
2023/12/25 09:19:43;;;;;;;2.03;0.63;;;;;;;15.09;61.43;100740.50;4955148;28;97027;-76
2023/12/25 09:22:10;;;;;;;2.78;1.15;;;;;;;15.07;61.42;100737.94;4961676;28;97205;-75
2023/12/25 09:24:38;;;;;;;2.13;0.88;;;;;;;15.07;61.44;100742.47;4964134;28;97755;-74
2023/12/25 09:27:05;;;;;;;3.03;0.90;;;;;;;15.08;61.31;100742.34;4963489;28;98187;-75
2023/12/25 09:29:32;;;;;;;4.35;1.17;;;;;;;15.08;61.38;100736.94;4963712;28;97724;-74
2023/12/25 09:31:58;;;;;;;3.00;1.00;;;;;;;15.10;61.85;100744.91;4963924;28;96974;-74
2023/12/25 09:34:25;;;;;;;1.75;0.77;;;;;;;15.12;61.65;100746.47;4963028;28;98507;-74
2023/12/25 09:37:03;;;;;;;1.05;0.80;;;;;;;15.14;61.31;100754.44;4963492;28;97530;-74
2023/12/25 09:39:29;;;;;;;4.60;0.80;;;;;;;15.16;61.54;100757.88;4963127;28;97131;-74
2023/12/25 09:41:56;;;;;;;1.23;0.70;;;;;;;15.17;61.65;100755.03;4964699;28;98111;-74
2023/12/25 09:44:24;;;;;;;2.00;0.90;;;;;;;15.18;61.62;100754.03;4963506;28;97626;-74
2023/12/25 09:46:52;;;;;;;3.95;0.90;;;;;;;15.19;61.71;100754.88;4963817;28;97526;-74
2023/12/25 09:49:21;;;;;;;5.43;0.88;;;;;;;15.21;61.31;100752.88;4963594;28;96869;-74
2023/12/25 09:51:50;;;;;;;2.85;0.82;;;;;;;15.21;61.53;100747.47;4964886;28;96931;-74
2023/12/25 09:54:16;;;;;;;2.30;0.95;;;;;;;15.23;61.29;100737.38;4963351;28;97915;-75
2023/12/25 09:56:44;;;;;;;2.30;0.70;;;;;;;15.23;61.53;100731.97;4963791;28;97700;-75
2023/12/25 09:59:12;;;;;;;1.23;0.93;;;;;;;15.24;61.37;100729.09;4962329;28;96947;-75
2023/12/25 10:01:40;;;;;;;2.10;0.82;;;;;;;15.25;61.52;100735.38;4964072;28;97109;-78
2023/12/25 10:04:08;;;;;;;2.97;1.00;;;;;;;15.26;61.65;100734.38;4995130;28;97955;-75
2023/12/25 10:06:35;;;;;;;2.42;1.00;;;;;;;15.29;61.53;100742.22;4963727;28;97617;-77
2023/12/25 10:09:03;;;;;;;2.17;0.80;;;;;;;15.32;61.14;100751.91;4961032;28;97141;-76
2023/12/25 10:11:30;;;;;;;4.13;1.50;;;;;;;15.34;61.21;100750.75;4964115;28;97411;-75
2023/12/25 10:13:56;;;;;;;2.13;0.88;;;;;;;15.35;61.36;100743.50;4963370;28;97856;-75
2023/12/25 10:16:23;;;;;;;3.80;0.95;;;;;;;15.37;61.24;100744.22;4963219;28;97456;-79
2023/12/25 10:18:50;;;;;;;3.30;0.95;;;;;;;15.37;61.14;100744.22;4958937;28;98280;-80
2023/12/25 10:21:16;;;;;;;2.55;0.90;;;;;;;15.39;61.46;100750.31;4973189;28;96884;-80
2023/12/25 10:23:44;;;;;;;3.60;0.90;;;;;;;15.39;61.33;100745.78;4949874;28;100767;-79
2023/12/25 10:26:11;;;;;;;1.45;0.80;;;;;;;15.39;61.53;100753.88;4976878;28;100010;-78
2023/12/25 10:28:38;;;;;;;1.73;0.80;;;;;;;15.40;61.44;100750.19;4961753;28;97080;-78
2023/12/25 10:31:07;;;;;;;4.75;0.80;;;;;;;15.40;61.49;100762.88;4959970;28;97093;-75
2023/12/25 10:33:36;;;;;;;1.23;0.70;;;;;;;15.40;61.17;100752.03;4957872;28;97624;-79
2023/12/25 10:36:07;;;;;;;3.88;0.80;;;;;;;15.40;61.12;100741.22;4938759;28;99880;-75
2023/12/25 10:38:42;;;;;;;2.33;0.82;;;;;;;15.41;61.07;100743.78;4969667;28;97300;-76
2023/12/25 10:41:22;;;;;;;2.65;1.20;;;;;;;15.41;61.30;100751.03;4969279;28;98600;-77
2023/12/25 10:43:54;;;;;;;1.95;0.90;;;;;;;15.42;61.02;100760.88;4955970;28;100180;-76
2023/12/25 10:46:23;;;;;;;4.43;0.98;;;;;;;15.41;60.92;100749.19;4961745;28;97920;-79
2023/12/25 10:48:52;;;;;;;3.25;0.93;;;;;;;15.40;60.81;100755.59;4955700;28;97165;-76
2023/12/25 10:51:29;;;;;;;2.30;1.08;;;;;;;15.38;60.98;100756.75;4975074;28;97347;-79
2023/12/25 10:54:03;;;;;;;3.92;0.95;;;;;;;15.37;61.14;100765.84;4966020;28;98248;-81
2023/12/25 10:56:35;;;;;;;3.45;1.15;;;;;;;15.35;61.01;100763.28;4973045;28;98043;-78
2023/12/25 10:59:46;;;;;;;5.43;1.70;;;;;;;15.32;61.18;100760.88;4960758;28;98497;-78
2023/12/25 11:02:16;;;;;;;2.67;0.80;;;;;;;15.35;60.88;100762.44;4932882;28;98467;-77
2023/12/25 11:04:46;;;;;;;4.35;1.20;;;;;;;15.33;61.02;100764.44;4956520;28;97999;-77
2023/12/25 11:07:16;;;;;;;2.88;1.33;;;;;;;15.32;61.19;100760.88;4959763;28;98131;-79
2023/12/25 11:09:45;;;;;;;4.32;1.00;;;;;;;15.32;60.56;100735.66;4954891;28;98744;-80
2023/12/25 11:12:12;;;;;;;4.97;1.17;;;;;;;15.34;60.50;100741.78;4960574;28;97154;-75
2023/12/25 11:14:40;;;;;;;3.53;1.70;;;;;;;15.35;60.45;100736.22;4953313;28;97892;-75
2023/12/25 11:17:07;;;;;;;3.08;1.10;;;;;;;15.35;60.45;100744.34;4984342;28;98927;-77
2023/12/25 11:19:35;;;;;;;5.10;0.70;;;;;;;15.37;60.49;100746.91;4957361;28;97392;-77
2023/12/25 11:22:28;;;;;;;5.18;1.00;;;;;;;15.39;60.60;100747.63;4940032;28;97611;-78